createdAt,value
2022-11-29T00:00:33.928Z,11.93
2022-11-29T00:03:01.282Z,12.57
2022-11-29T00:05:28.701Z,12.33
2022-11-29T00:07:57.517Z,11.93
2022-11-29T00:10:24.807Z,11.43
2022-11-29T00:12:52.196Z,11.03
2022-11-29T00:15:19.414Z,11.43
2022-11-29T00:18:05.746Z,11.03
2022-11-29T00:23:17.193Z,11.10
2022-11-29T00:25:44.875Z,10.30
2022-11-29T00:28:12.342Z,10.73
2022-11-29T00:30:39.632Z,10.77
2022-11-29T00:33:06.945Z,11.03
2022-11-29T00:38:33.731Z,9.73
2022-11-29T00:41:00.924Z,10.63
2022-11-29T00:43:28.184Z,10.77
2022-11-29T00:46:13.750Z,10.33
2022-11-29T00:49:03.345Z,10.57
2022-11-29T00:51:30.659Z,10.47
2022-11-29T00:53:59.327Z,10.23
2022-11-29T00:56:26.543Z,9.77
2022-11-29T00:58:53.814Z,9.20
2022-11-29T01:01:21.101Z,9.73
2022-11-29T01:03:48.479Z,10.27
2022-11-29T01:06:16.814Z,10.03
2022-11-29T01:08:44.444Z,9.10
2022-11-29T01:11:14.149Z,8.57
2022-11-29T01:13:41.897Z,9.63
2022-11-29T01:16:24.489Z,8.20
2022-11-29T01:19:11.573Z,8.53
2022-11-29T01:21:38.837Z,8.60
2022-11-29T01:24:06.321Z,8.57
2022-11-29T01:26:34.854Z,7.83
2022-11-29T01:29:02.158Z,9.23
2022-11-29T01:31:30.535Z,8.60
2022-11-29T01:33:58.630Z,7.60
2022-11-29T01:36:26.234Z,8.40
2022-11-29T01:38:54.004Z,9.20
2022-11-29T01:41:22.459Z,7.23
2022-11-29T01:43:58.677Z,7.93
2022-11-29T01:46:39.720Z,7.53
2022-11-29T01:49:22.422Z,8.13
2022-11-29T01:51:51.533Z,7.50
2022-11-29T01:54:19.076Z,7.87
2022-11-29T01:56:47.807Z,7.30
2022-11-29T01:59:17.745Z,6.97
2022-11-29T02:01:45.095Z,7.83
2022-11-29T02:04:21.738Z,7.43
2022-11-29T02:06:49.017Z,6.87
2022-11-29T02:09:18.364Z,6.83
2022-11-29T02:11:52.417Z,6.73
2022-11-29T02:14:39.439Z,8.10
2022-11-29T02:17:28.588Z,8.10
2022-11-29T02:20:11.436Z,7.37
2022-11-29T02:22:42.288Z,6.57
2022-11-29T02:25:20.544Z,6.43
2022-11-29T02:28:05.432Z,6.73
2022-11-29T02:30:50.634Z,6.93
2022-11-29T02:36:37.030Z,6.50
2022-11-29T02:39:13.865Z,6.90
2022-11-29T02:42:05.154Z,6.20
2022-11-29T02:44:55.621Z,6.50
2022-11-29T02:47:49.467Z,6.70
2022-11-29T02:50:19.600Z,6.43
2022-11-29T02:52:53.483Z,6.30
2022-11-29T02:55:23.610Z,6.20
2022-11-29T02:57:55.852Z,6.93
2022-11-29T03:00:23.811Z,6.93
2022-11-29T03:03:00.735Z,6.70
2022-11-29T03:05:33.050Z,6.43
2022-11-29T03:08:06.462Z,6.77
2022-11-29T03:10:39.608Z,7.30
2022-11-29T03:13:17.756Z,7.47
2022-11-29T03:15:59.420Z,7.00
2022-11-29T03:18:33.465Z,7.00
2022-11-29T03:21:08.276Z,6.97
2022-11-29T03:23:38.478Z,7.07
2022-11-29T03:26:08.177Z,6.80
2022-11-29T03:28:38.519Z,6.53
2022-11-29T03:31:08.857Z,7.13
2022-11-29T03:33:39.676Z,7.97
2022-11-29T03:36:10.022Z,7.50
2022-11-29T03:38:40.729Z,6.30
2022-11-29T03:41:13.701Z,6.33
2022-11-29T03:44:02.687Z,8.00
2022-11-29T03:46:45.271Z,7.23
2022-11-29T03:49:16.139Z,7.90
2022-11-29T03:51:49.446Z,8.20
2022-11-29T03:54:21.784Z,7.70
2022-11-29T03:56:49.425Z,7.67
2022-11-29T03:59:23.895Z,7.73
2022-11-29T04:04:50.010Z,7.47
2022-11-29T04:07:31.018Z,7.97
2022-11-29T04:10:09.186Z,7.50
2022-11-29T04:12:49.556Z,7.60
2022-11-29T04:15:38.354Z,7.60
2022-11-29T04:18:19.815Z,7.13
2022-11-29T04:20:57.439Z,7.37
2022-11-29T04:23:46.523Z,6.77
2022-11-29T04:26:29.676Z,7.07
2022-11-29T04:29:17.438Z,6.90
2022-11-29T04:31:58.536Z,7.20
2022-11-29T04:34:37.259Z,7.20
2022-11-29T04:37:19.282Z,7.70
2022-11-29T04:40:04.437Z,7.80
2022-11-29T04:43:07.742Z,7.27
2022-11-29T04:48:56.208Z,8.27
2022-11-29T04:51:30.615Z,6.73
2022-11-29T04:54:02.782Z,7.60
2022-11-29T04:56:35.079Z,8.03
2022-11-29T04:59:04.910Z,8.53
2022-11-29T05:01:47.199Z,8.53
2022-11-29T05:04:18.413Z,8.40
2022-11-29T05:06:50.713Z,8.33
2022-11-29T05:09:24.145Z,10.07
2022-11-29T05:11:58.492Z,8.53
2022-11-29T05:18:19.124Z,9.17
2022-11-29T05:20:49.316Z,8.87
2022-11-29T05:23:27.429Z,8.53
2022-11-29T05:25:57.848Z,9.33
2022-11-29T05:28:26.866Z,9.67
2022-11-29T05:31:08.972Z,8.80
2022-11-29T05:33:43.361Z,10.23
2022-11-29T05:36:15.451Z,9.83
2022-11-29T05:38:52.472Z,10.03
2022-11-29T05:41:29.986Z,9.70
2022-11-29T05:44:03.664Z,10.90
2022-11-29T05:46:33.471Z,12.70
2022-11-29T05:49:05.765Z,12.37
2022-11-29T05:51:39.191Z,11.87
2022-11-29T05:54:12.527Z,11.53
2022-11-29T05:56:43.521Z,12.73
2022-11-29T05:59:13.567Z,10.87
2022-11-29T06:01:45.364Z,10.73
2022-11-29T06:04:15.406Z,11.37
2022-11-29T06:06:45.520Z,10.93
2022-11-29T06:09:15.495Z,10.53
2022-11-29T06:11:45.105Z,11.17
2022-11-29T06:14:17.325Z,10.13
2022-11-29T06:16:55.790Z,10.33
2022-11-29T06:19:40.806Z,9.57
2022-11-29T06:22:35.202Z,8.73
2022-11-29T06:25:24.284Z,9.63
2022-11-29T06:28:15.566Z,8.83
2022-11-29T06:30:50.264Z,9.17
2022-11-29T06:33:21.442Z,9.83
2022-11-29T06:35:50.704Z,9.67
2022-11-29T06:38:21.592Z,9.80
2022-11-29T06:40:50.654Z,10.43
2022-11-29T06:43:18.265Z,10.27
2022-11-29T06:45:47.638Z,8.80
2022-11-29T06:48:19.977Z,9.83
2022-11-29T06:50:50.839Z,8.53
2022-11-29T06:53:23.088Z,9.20
2022-11-29T06:55:58.752Z,8.67
2022-11-29T06:58:36.409Z,9.87
2022-11-29T07:01:09.130Z,9.10
2022-11-29T07:03:42.074Z,9.53
2022-11-29T07:06:12.117Z,5.90
2022-11-29T07:08:40.202Z,8.80
2022-11-29T07:11:12.850Z,8.57
2022-11-29T07:13:40.698Z,9.30
2022-11-29T07:16:12.546Z,9.03
2022-11-29T07:18:43.927Z,8.53
2022-11-29T07:21:15.416Z,10.47
2022-11-29T07:23:47.309Z,8.30
2022-11-29T07:26:25.312Z,9.43
2022-11-29T07:29:01.613Z,9.00
2022-11-29T07:31:33.264Z,9.27
2022-11-29T07:34:06.608Z,7.50
2022-11-29T07:36:55.446Z,9.40
2022-11-29T07:39:28.248Z,9.43
2022-11-29T07:42:01.407Z,9.37
2022-11-29T07:44:34.076Z,9.67
2022-11-29T07:47:01.360Z,10.73
2022-11-29T07:49:28.588Z,9.77
2022-11-29T07:51:56.229Z,10.37
2022-11-29T07:54:23.679Z,10.03
2022-11-29T07:56:50.905Z,9.80
2022-11-29T07:59:19.510Z,9.87
2022-11-29T08:01:46.799Z,7.60
2022-11-29T08:04:14.076Z,9.17
2022-11-29T08:06:41.444Z,9.30
2022-11-29T08:09:08.734Z,9.33
2022-11-29T08:11:36.310Z,9.67
2022-11-29T08:14:04.613Z,9.97
2022-11-29T08:16:33.823Z,9.00
2022-11-29T08:19:01.288Z,10.43
2022-11-29T08:21:28.803Z,6.47
2022-11-29T08:23:56.000Z,10.60
2022-11-29T08:30:10.931Z,8.63
2022-11-29T08:32:39.594Z,10.00
2022-11-29T08:35:06.916Z,10.03
2022-11-29T08:37:34.231Z,10.13
2022-11-29T08:40:01.451Z,10.43
2022-11-29T08:42:28.704Z,10.20
2022-11-29T08:45:01.384Z,10.17
2022-11-29T08:47:28.636Z,11.23
2022-11-29T08:49:57.226Z,9.77
2022-11-29T08:52:24.499Z,10.00
2022-11-29T09:00:35.526Z,9.83
2022-11-29T09:03:02.997Z,9.17
2022-11-29T09:05:31.524Z,9.43
2022-11-29T09:07:59.378Z,9.00
2022-11-29T09:10:26.644Z,10.77
2022-11-29T09:12:53.893Z,11.87
2022-11-29T09:15:21.920Z,10.27
2022-11-29T09:17:49.170Z,11.37
2022-11-29T09:20:16.423Z,11.43
2022-11-29T09:22:44.975Z,10.40
2022-11-29T09:25:30.604Z,12.07
2022-11-29T09:28:25.483Z,11.83
2022-11-29T09:30:52.885Z,11.13
2022-11-29T09:33:20.264Z,11.37
2022-11-29T09:35:47.604Z,12.23
2022-11-29T09:38:16.672Z,11.70
2022-11-29T09:40:47.236Z,10.73
2022-11-29T09:43:25.194Z,10.80
2022-11-29T09:45:56.610Z,11.97
2022-11-29T09:48:36.130Z,8.50
2022-11-29T09:51:10.352Z,10.70
2022-11-29T09:53:50.493Z,8.67
2022-11-29T10:03:04.069Z,10.77
2022-11-29T10:05:35.058Z,8.47
2022-11-29T10:08:03.853Z,8.67
2022-11-29T10:10:34.286Z,9.17
2022-11-29T10:15:44.627Z,6.37
2022-11-29T10:18:13.795Z,8.60
2022-11-29T10:20:48.579Z,9.87
2022-11-29T10:23:29.235Z,10.00
2022-11-29T10:29:45.383Z,9.80
2022-11-29T10:32:14.664Z,9.47
2022-11-29T10:34:42.468Z,10.33
2022-11-29T10:37:13.751Z,11.90
2022-11-29T10:39:42.972Z,10.77
2022-11-29T10:45:12.146Z,10.40
2022-11-29T10:47:39.399Z,11.47
2022-11-29T10:50:07.179Z,11.20
2022-11-29T10:52:34.459Z,10.67
2022-11-29T10:55:03.032Z,12.00
2022-11-29T10:58:12.518Z,11.07
2022-11-29T11:01:00.807Z,11.50
2022-11-29T11:03:30.060Z,10.87
2022-11-29T11:05:59.169Z,11.20
2022-11-29T11:08:26.705Z,10.47
2022-11-29T11:11:01.219Z,10.33
2022-11-29T11:13:30.502Z,10.17
2022-11-29T11:16:07.488Z,10.97
2022-11-29T11:18:34.797Z,10.37
2022-11-29T11:21:02.533Z,10.00
2022-11-29T11:23:30.697Z,11.57
2022-11-29T11:25:59.394Z,11.53
2022-11-29T11:28:43.991Z,11.73
2022-11-29T11:34:29.922Z,11.47
2022-11-29T11:37:13.861Z,10.67
2022-11-29T11:39:41.215Z,10.40
2022-11-29T11:42:10.959Z,11.57
2022-11-29T11:44:47.841Z,12.30
2022-11-29T11:47:19.437Z,13.07
2022-11-29T11:49:49.749Z,11.73
2022-11-29T11:52:19.687Z,11.63
2022-11-29T11:54:47.579Z,11.67
2022-11-29T11:57:17.462Z,12.90
2022-11-29T11:59:48.399Z,12.57
2022-11-29T12:02:25.997Z,12.67
2022-11-29T12:05:11.429Z,12.23
2022-11-29T12:08:07.246Z,11.70
2022-11-29T12:10:33.413Z,12.43
2022-11-29T12:13:01.612Z,11.83
2022-11-29T12:15:30.208Z,12.03
2022-11-29T12:18:02.537Z,12.83
2022-11-29T12:20:32.436Z,12.73
2022-11-29T12:23:23.980Z,13.57
2022-11-29T12:25:53.186Z,12.37
2022-11-29T12:28:21.448Z,11.10
2022-11-29T12:30:52.242Z,11.83
2022-11-29T12:33:37.997Z,12.80
2022-11-29T12:36:20.322Z,11.97
2022-11-29T12:38:57.641Z,11.43
2022-11-29T12:41:30.306Z,11.77
2022-11-29T12:44:02.799Z,11.53
2022-11-29T12:46:30.497Z,11.53
2022-11-29T12:49:01.160Z,12.20
2022-11-29T12:51:35.622Z,13.17
2022-11-29T12:54:20.543Z,14.10
2022-11-29T12:56:50.695Z,13.80
2022-11-29T12:59:23.328Z,15.63
2022-11-29T13:01:58.416Z,12.83
2022-11-29T13:04:29.498Z,14.40
2022-11-29T13:07:03.357Z,15.40
2022-11-29T13:09:56.572Z,12.70
2022-11-29T13:12:27.516Z,12.37
2022-11-29T13:14:59.186Z,13.97
2022-11-29T13:17:31.222Z,14.33
2022-11-29T13:23:00.537Z,12.33
2022-11-29T13:25:29.410Z,14.03
2022-11-29T13:27:58.511Z,13.73
2022-11-29T13:30:26.044Z,14.27
2022-11-29T13:32:57.833Z,14.77
2022-11-29T13:35:36.924Z,14.23
2022-11-29T13:38:28.042Z,14.47
2022-11-29T13:41:05.532Z,13.40
2022-11-29T13:43:37.113Z,14.47
2022-11-29T13:46:08.990Z,15.93
2022-11-29T13:48:37.627Z,15.23
2022-11-29T13:51:22.956Z,15.73
2022-11-29T13:53:50.734Z,17.57
2022-11-29T13:56:28.129Z,15.00
2022-11-29T13:58:55.769Z,15.93
2022-11-29T14:01:23.438Z,15.40
2022-11-29T14:04:01.597Z,15.87
2022-11-29T14:06:50.535Z,16.57
2022-11-29T14:09:39.211Z,16.60
2022-11-29T14:12:19.458Z,15.80
2022-11-29T14:14:50.110Z,14.90
2022-11-29T14:17:32.847Z,16.70
2022-11-29T14:20:15.007Z,15.97
2022-11-29T14:23:13.930Z,16.23
2022-11-29T14:25:57.243Z,16.77
2022-11-29T14:28:33.262Z,15.63
2022-11-29T14:31:00.850Z,17.80
2022-11-29T14:33:36.118Z,16.63
2022-11-29T14:36:28.347Z,13.77
2022-11-29T14:39:22.807Z,16.90
2022-11-29T14:41:54.912Z,16.53
2022-11-29T14:44:25.493Z,16.73
2022-11-29T14:47:00.795Z,17.67
2022-11-29T14:49:29.467Z,19.43
2022-11-29T14:52:07.289Z,19.07
2022-11-29T14:57:27.126Z,16.77
2022-11-29T14:59:56.156Z,17.63
2022-11-29T15:02:28.590Z,18.47
2022-11-29T15:05:16.264Z,17.83
2022-11-29T15:11:22.668Z,15.73
2022-11-29T15:13:55.037Z,16.67
2022-11-29T15:16:29.464Z,16.90
2022-11-29T15:19:13.923Z,15.17
2022-11-29T15:21:46.719Z,17.77
2022-11-29T15:24:14.772Z,17.40
2022-11-29T15:26:55.037Z,15.87
2022-11-29T15:29:22.301Z,13.73
2022-11-29T15:31:52.814Z,15.17
2022-11-29T15:34:21.198Z,16.97
2022-11-29T15:36:48.514Z,19.27
2022-11-29T15:39:26.470Z,18.27
2022-11-29T15:41:54.047Z,15.17
2022-11-29T15:44:22.209Z,16.03
2022-11-29T15:46:51.502Z,14.73
2022-11-29T15:49:19.510Z,16.80
2022-11-29T15:51:48.894Z,16.47
2022-11-29T15:54:18.298Z,16.13
2022-11-29T15:56:47.157Z,16.03
2022-11-29T15:59:18.078Z,16.90
2022-11-29T16:01:46.389Z,14.47
2022-11-29T16:04:18.592Z,14.60
2022-11-29T16:06:47.042Z,14.87
2022-11-29T16:09:16.110Z,13.63
2022-11-29T16:11:43.874Z,13.37
2022-11-29T16:14:15.240Z,13.23
2022-11-29T16:16:43.900Z,14.53
2022-11-29T16:19:12.114Z,12.40
2022-11-29T16:21:43.898Z,11.53
2022-11-29T16:24:12.147Z,10.23
2022-11-29T16:26:40.879Z,9.33
2022-11-29T16:29:16.893Z,9.10
2022-11-29T16:31:44.258Z,9.30
2022-11-29T16:34:20.784Z,10.23
2022-11-29T16:37:01.042Z,8.47
2022-11-29T16:39:28.758Z,8.30
2022-11-29T16:42:03.788Z,8.30
2022-11-29T16:44:46.153Z,8.33
2022-11-29T16:47:17.051Z,8.03
2022-11-29T16:49:44.957Z,8.60
2022-11-29T16:52:24.948Z,8.97
2022-11-29T16:54:52.409Z,7.33
2022-11-29T16:57:19.904Z,7.20
2022-11-29T16:59:47.380Z,7.90
2022-11-29T17:02:15.398Z,7.33
2022-11-29T17:04:43.101Z,8.03
2022-11-29T17:07:14.786Z,6.67
2022-11-29T17:09:43.843Z,7.03
2022-11-29T17:12:11.949Z,7.70
2022-11-29T17:14:39.562Z,7.43
2022-11-29T17:17:07.090Z,6.77
2022-11-29T17:19:34.308Z,7.60
2022-11-29T17:22:01.668Z,6.93
2022-11-29T17:24:28.915Z,6.30
2022-11-29T17:26:58.032Z,6.33
2022-11-29T17:29:25.454Z,6.23
2022-11-29T17:31:53.021Z,4.93
2022-11-29T17:34:20.341Z,6.43
2022-11-29T17:36:49.184Z,6.63
2022-11-29T17:39:16.712Z,6.83
2022-11-29T17:41:44.049Z,5.73
2022-11-29T17:44:12.959Z,6.00
2022-11-29T17:46:40.413Z,6.73
2022-11-29T17:49:08.518Z,6.70
2022-11-29T17:51:51.553Z,5.97
2022-11-29T17:54:19.868Z,3.70
2022-11-29T17:56:47.085Z,6.13
2022-11-29T17:59:15.932Z,5.90
2022-11-29T18:01:43.372Z,5.80
2022-11-29T18:04:10.657Z,6.47
2022-11-29T18:06:39.013Z,5.77
2022-11-29T18:09:07.077Z,6.83
2022-11-29T18:11:44.878Z,6.30
2022-11-29T18:14:16.710Z,7.30
2022-11-29T18:16:44.063Z,5.97
2022-11-29T18:19:12.560Z,6.67
2022-11-29T18:21:39.817Z,6.10
2022-11-29T18:24:07.790Z,5.70
2022-11-29T18:26:35.669Z,6.33
2022-11-29T18:29:03.026Z,6.23
2022-11-29T18:31:32.451Z,6.47
2022-11-29T18:34:00.472Z,6.13
2022-11-29T18:36:28.294Z,6.10
2022-11-29T18:38:56.280Z,6.40
2022-11-29T18:41:24.105Z,5.97
2022-11-29T18:43:56.183Z,5.97
2022-11-29T18:46:23.404Z,6.10
2022-11-29T18:48:52.246Z,6.90
2022-11-29T18:51:20.379Z,7.40
2022-11-29T18:53:47.765Z,6.77
2022-11-29T18:56:16.041Z,8.07
2022-11-29T18:58:43.943Z,6.40
2022-11-29T19:01:12.514Z,6.40
2022-11-29T19:03:41.293Z,6.63
2022-11-29T19:06:11.120Z,6.47
2022-11-29T19:08:39.056Z,7.10
2022-11-29T19:11:06.798Z,6.77
2022-11-29T19:13:34.475Z,11.07
2022-11-29T19:16:02.115Z,8.10
2022-11-29T19:18:29.796Z,7.77
2022-11-29T19:21:04.206Z,11.67
2022-11-29T19:23:32.967Z,8.50
2022-11-29T19:26:03.328Z,8.83
2022-11-29T19:28:30.779Z,9.57
2022-11-29T19:30:58.471Z,9.03
2022-11-29T19:33:26.091Z,9.73
2022-11-29T19:35:53.362Z,10.07
2022-11-29T19:38:20.695Z,10.83
2022-11-29T19:40:49.342Z,9.00
2022-11-29T19:43:16.674Z,9.40
2022-11-29T19:45:43.932Z,9.50
2022-11-29T19:48:12.044Z,8.90
2022-11-29T19:50:39.269Z,9.13
2022-11-29T19:53:06.567Z,10.57
2022-11-29T19:55:34.145Z,10.70
2022-11-29T19:58:03.034Z,11.27
2022-11-29T20:00:30.274Z,16.53
2022-11-29T20:02:57.531Z,22.63
2022-11-29T20:05:24.732Z,21.43
2022-11-29T20:07:52.122Z,13.07
2022-11-29T20:10:19.389Z,13.37
2022-11-29T20:12:46.599Z,12.67
2022-11-29T20:15:15.342Z,11.70
2022-11-29T20:17:42.596Z,15.10
2022-11-29T20:20:10.790Z,16.20
2022-11-29T20:22:38.033Z,17.03
2022-11-29T20:25:08.216Z,13.33
2022-11-29T20:27:35.425Z,11.20
2022-11-29T20:30:02.699Z,12.43
2022-11-29T20:32:31.363Z,13.70
2022-11-29T20:34:59.089Z,13.80
2022-11-29T20:37:31.426Z,12.40
2022-11-29T20:40:01.094Z,13.80
2022-11-29T20:42:42.667Z,12.70
2022-11-29T20:45:14.447Z,12.90
2022-11-29T20:47:45.641Z,13.40
2022-11-29T20:50:15.776Z,12.50
2022-11-29T20:52:46.145Z,13.30
2022-11-29T20:55:13.474Z,12.57
2022-11-29T20:57:41.009Z,13.03
2022-11-29T21:00:09.520Z,12.93
2022-11-29T21:02:37.076Z,11.80
2022-11-29T21:05:06.337Z,14.00
2022-11-29T21:07:34.170Z,13.10
2022-11-29T21:10:02.070Z,13.77
2022-11-29T21:12:29.681Z,13.90
2022-11-29T21:14:57.325Z,13.93
2022-11-29T21:17:30.219Z,13.10
2022-11-29T21:20:00.851Z,13.20
2022-11-29T21:22:31.604Z,13.07
2022-11-29T21:25:07.554Z,11.50
2022-11-29T21:27:35.495Z,12.43
2022-11-29T21:30:03.456Z,13.03
2022-11-29T21:32:31.099Z,12.43
2022-11-29T21:34:58.329Z,12.77
2022-11-29T21:37:27.370Z,12.30
2022-11-29T21:39:56.039Z,13.60
2022-11-29T21:42:23.538Z,13.13
2022-11-29T21:44:50.760Z,13.23
2022-11-29T21:47:18.288Z,13.07
2022-11-29T21:49:45.541Z,12.20
2022-11-29T21:52:15.405Z,12.27
2022-11-29T21:54:47.042Z,11.50
2022-11-29T21:57:15.962Z,12.37
2022-11-29T21:59:44.085Z,11.70
2022-11-29T22:02:11.392Z,12.57
2022-11-29T22:04:38.825Z,12.83
2022-11-29T22:07:06.450Z,12.00
2022-11-29T22:09:34.062Z,11.70
2022-11-29T22:12:14.649Z,10.60
2022-11-29T22:14:50.301Z,10.73
2022-11-29T22:17:17.480Z,10.30
2022-11-29T22:19:45.455Z,10.73
2022-11-29T22:22:13.098Z,11.00
2022-11-29T22:24:40.366Z,10.50
2022-11-29T22:27:07.601Z,12.43
2022-11-29T22:29:34.915Z,10.20
2022-11-29T22:32:03.902Z,11.10
2022-11-29T22:34:31.135Z,10.77
2022-11-29T22:36:58.365Z,9.93
2022-11-29T22:39:25.653Z,11.20
2022-11-29T22:41:55.097Z,11.23
2022-11-29T22:44:23.083Z,12.07
2022-11-29T22:46:50.562Z,9.50
2022-11-29T22:49:19.539Z,10.70
2022-11-29T22:51:47.273Z,10.37
2022-11-29T22:54:15.075Z,10.43
2022-11-29T22:56:43.141Z,10.93
2022-11-29T22:59:10.987Z,10.27
2022-11-29T23:01:39.389Z,9.80
2022-11-29T23:04:10.278Z,10.43
2022-11-29T23:06:39.917Z,10.83
2022-11-29T23:09:08.609Z,10.07
2022-11-29T23:11:35.866Z,10.60
2022-11-29T23:14:03.214Z,11.47
2022-11-29T23:16:31.188Z,11.37
2022-11-29T23:18:59.136Z,10.93
2022-11-29T23:21:27.462Z,11.33
2022-11-29T23:23:57.107Z,11.43
2022-11-29T23:26:25.244Z,11.53
2022-11-29T23:28:53.384Z,10.90
2022-11-29T23:31:21.136Z,11.80
2022-11-29T23:33:48.625Z,10.63
2022-11-29T23:36:16.672Z,11.47
2022-11-29T23:38:53.304Z,12.00
2022-11-29T23:41:22.290Z,9.77
2022-11-29T23:43:49.660Z,10.37
2022-11-29T23:46:18.587Z,11.43
2022-11-29T23:49:07.613Z,10.83
2022-11-29T23:51:47.142Z,9.77
2022-11-29T23:54:14.485Z,11.37
2022-11-29T23:56:43.060Z,10.87
2022-11-29T23:59:10.251Z,10.67
